Terminal Aerodrome Forecast
Issued by NWS Cleveland, OH

Home | Current Version | Previous Version | Text Only | Print | Product List | Glossary Off
Versions: 1 2 3 4 5 6 7 8 9 10 11 12 13 14

523
FTUS41 KCLE 211122
TAFTOL
TAF
KTOL 211122Z 2112/2212 21014G22KT P6SM SCT100 BKN250 WS020/23045KT
     FM211400 23015G28KT P6SM SCT100 BKN250
     FM212200 27012G20KT P6SM SCT015 OVC035
      TEMPO 2122/2201 OVC015
     FM220300 30012KT P6SM FEW020 SCT100=

USA.gov is the U.S. government's official web portal to all federal, state and local government web resources and services.